createdAt,value
2022-08-29T00:00:25.778Z,37.02
2022-08-29T00:01:00.687Z,36.88
2022-08-29T00:01:32.912Z,37.04
2022-08-29T00:02:04.921Z,36.87
2022-08-29T00:02:36.541Z,36.94
2022-08-29T00:03:08.853Z,36.96
2022-08-29T00:03:43.397Z,37.05
2022-08-29T00:04:15.012Z,37.08
2022-08-29T00:04:46.546Z,37.07
2022-08-29T00:05:18.463Z,36.98
2022-08-29T00:05:50.332Z,36.90
2022-08-29T00:06:21.928Z,37.05
2022-08-29T00:06:53.395Z,36.93
2022-08-29T00:07:24.860Z,37.13
2022-08-29T00:07:56.336Z,37.00
2022-08-29T00:08:27.857Z,36.96
2022-08-29T00:08:59.360Z,36.86
2022-08-29T00:09:30.968Z,36.92
2022-08-29T00:10:02.458Z,36.92
2022-08-29T00:10:33.915Z,36.99
2022-08-29T00:11:05.536Z,36.78
2022-08-29T00:11:36.962Z,36.77
2022-08-29T00:12:16.800Z,36.77
2022-08-29T00:12:48.349Z,36.86
2022-08-29T00:13:19.804Z,36.97
2022-08-29T00:13:51.446Z,36.79
2022-08-29T00:14:23.645Z,36.79
2022-08-29T00:14:55.304Z,36.96
2022-08-29T00:15:26.762Z,36.74
2022-08-29T00:15:58.271Z,36.74
2022-08-29T00:16:29.828Z,36.98
2022-08-29T00:17:01.405Z,36.77
2022-08-29T00:17:32.875Z,36.97
2022-08-29T00:18:04.386Z,36.72
2022-08-29T00:18:36.909Z,36.86
2022-08-29T00:19:08.410Z,36.97
2022-08-29T00:19:39.890Z,36.74
2022-08-29T00:20:11.413Z,36.75
2022-08-29T00:20:42.961Z,36.98
2022-08-29T00:21:14.498Z,36.80
2022-08-29T00:21:46.000Z,36.92
2022-08-29T00:22:17.521Z,36.78
2022-08-29T00:22:49.091Z,36.77
2022-08-29T00:23:20.560Z,36.98
2022-08-29T00:23:52.069Z,36.85
2022-08-29T00:24:23.635Z,36.84
2022-08-29T00:24:55.175Z,36.85
2022-08-29T00:25:26.590Z,36.93
2022-08-29T00:25:58.211Z,37.04
2022-08-29T00:26:30.118Z,36.80
2022-08-29T00:27:02.960Z,36.92
2022-08-29T00:27:34.472Z,36.84
2022-08-29T00:28:06.110Z,36.88
2022-08-29T00:28:37.575Z,36.82
2022-08-29T00:29:09.043Z,36.91
2022-08-29T00:29:40.568Z,36.85
2022-08-29T00:30:12.048Z,36.98
2022-08-29T00:30:43.584Z,36.94
2022-08-29T00:31:15.238Z,36.99
2022-08-29T00:31:46.712Z,36.82
2022-08-29T00:32:18.244Z,36.88
2022-08-29T00:32:49.714Z,36.74
2022-08-29T00:33:21.143Z,36.93
2022-08-29T00:33:52.655Z,36.82
2022-08-29T00:34:24.102Z,36.76
2022-08-29T00:34:55.691Z,36.85
2022-08-29T00:35:27.163Z,36.71
2022-08-29T00:35:58.715Z,36.84
2022-08-29T00:36:31.020Z,36.77
2022-08-29T00:37:02.701Z,36.90
2022-08-29T00:37:35.068Z,36.76
2022-08-29T00:38:09.983Z,36.71
2022-08-29T00:38:41.921Z,36.92
2022-08-29T00:39:13.458Z,36.76
2022-08-29T00:39:45.466Z,37.07
2022-08-29T00:40:17.163Z,36.83
2022-08-29T00:40:51.676Z,37.02
2022-08-29T00:41:23.634Z,37.02
2022-08-29T00:41:55.116Z,36.81
2022-08-29T00:42:26.938Z,36.87
2022-08-29T00:42:58.454Z,36.74
2022-08-29T00:43:29.940Z,36.64
2022-08-29T00:44:01.435Z,36.85
2022-08-29T00:44:32.901Z,36.82
2022-08-29T00:45:04.389Z,36.95
2022-08-29T00:45:35.917Z,36.57
2022-08-29T00:46:07.708Z,36.73
2022-08-29T00:46:39.243Z,36.70
2022-08-29T00:47:10.737Z,36.81
2022-08-29T00:47:42.195Z,36.90
2022-08-29T00:48:13.762Z,36.71
2022-08-29T00:48:45.410Z,36.73
2022-08-29T00:49:16.875Z,36.72
2022-08-29T00:49:48.376Z,36.85
2022-08-29T00:50:19.790Z,36.76
2022-08-29T00:50:51.326Z,36.62
2022-08-29T00:51:22.876Z,36.66
2022-08-29T00:51:54.336Z,36.66
2022-08-29T00:52:25.836Z,36.57
2022-08-29T00:52:57.373Z,36.84
2022-08-29T00:53:28.932Z,36.63
2022-08-29T00:54:00.455Z,36.61
2022-08-29T00:54:31.925Z,36.57
2022-08-29T00:55:03.408Z,36.67
2022-08-29T00:55:34.993Z,36.65
2022-08-29T00:56:06.504Z,36.82
2022-08-29T00:56:37.934Z,36.79
2022-08-29T00:57:09.404Z,36.73
2022-08-29T00:57:40.997Z,36.73
2022-08-29T00:58:14.593Z,36.93
2022-08-29T00:58:46.361Z,36.76
2022-08-29T00:59:17.843Z,36.77
2022-08-29T00:59:49.321Z,36.65
2022-08-29T01:00:21.186Z,36.63
2022-08-29T01:00:52.746Z,36.81
2022-08-29T01:01:24.373Z,36.84
2022-08-29T01:02:42.561Z,36.84
2022-08-29T01:03:13.960Z,36.78
2022-08-29T01:03:45.438Z,36.87
2022-08-29T01:04:24.235Z,36.62
2022-08-29T01:04:55.937Z,36.76
2022-08-29T01:05:27.385Z,36.67
2022-08-29T01:05:58.838Z,36.77
2022-08-29T01:06:30.355Z,36.58
2022-08-29T01:07:01.881Z,36.65
2022-08-29T01:07:33.402Z,36.75
2022-08-29T01:08:09.427Z,36.58
2022-08-29T01:08:40.941Z,36.75
2022-08-29T01:09:15.081Z,36.61
2022-08-29T01:09:46.635Z,36.56
2022-08-29T01:10:18.124Z,36.80
2022-08-29T01:10:49.649Z,36.71
2022-08-29T01:11:21.078Z,36.69
2022-08-29T01:11:55.703Z,36.67
2022-08-29T01:12:27.183Z,36.53
2022-08-29T01:12:58.766Z,36.63
2022-08-29T01:13:30.454Z,36.62
2022-08-29T01:14:01.968Z,36.51
2022-08-29T01:14:37.827Z,36.67
2022-08-29T01:15:09.979Z,36.42
2022-08-29T01:15:41.427Z,36.56
2022-08-29T01:16:12.962Z,36.53
2022-08-29T01:16:44.592Z,36.46
2022-08-29T01:17:16.248Z,36.38
2022-08-29T01:17:50.251Z,36.66
2022-08-29T01:18:21.717Z,36.50
2022-08-29T01:18:53.444Z,36.50
2022-08-29T01:19:27.857Z,36.69
2022-08-29T01:19:59.479Z,36.44
2022-08-29T01:20:31.035Z,36.69
2022-08-29T01:21:02.521Z,36.51
2022-08-29T01:21:34.052Z,36.48
2022-08-29T01:22:05.513Z,36.64
2022-08-29T01:22:37.220Z,36.64
2022-08-29T01:23:08.660Z,36.58
2022-08-29T01:23:40.193Z,36.48
2022-08-29T01:24:11.731Z,36.50
2022-08-29T01:24:43.150Z,36.62
2022-08-29T01:25:14.653Z,36.81
2022-08-29T01:25:46.408Z,36.50
2022-08-29T01:26:17.843Z,36.42
2022-08-29T01:26:49.377Z,36.53
2022-08-29T01:27:20.826Z,36.70
2022-08-29T01:27:52.417Z,36.64
2022-08-29T01:28:23.922Z,36.52
2022-08-29T01:28:55.458Z,36.63
2022-08-29T01:29:26.945Z,36.71
2022-08-29T01:29:58.450Z,36.52
2022-08-29T01:30:32.759Z,36.74
2022-08-29T01:31:04.199Z,36.65
2022-08-29T01:31:46.099Z,36.56
2022-08-29T01:32:27.120Z,36.71
2022-08-29T01:32:58.798Z,36.58
2022-08-29T01:33:30.332Z,36.51
2022-08-29T01:34:01.765Z,36.64
2022-08-29T01:34:33.225Z,36.65
2022-08-29T01:35:04.678Z,36.54
2022-08-29T01:35:36.152Z,36.62
2022-08-29T01:36:07.760Z,36.57
2022-08-29T01:36:39.239Z,36.79
2022-08-29T01:37:10.653Z,36.59
2022-08-29T01:37:42.147Z,36.63
2022-08-29T01:38:13.697Z,36.69
2022-08-29T01:38:45.349Z,36.69
2022-08-29T01:39:17.410Z,36.69
2022-08-29T01:39:49.192Z,36.72
2022-08-29T01:40:20.791Z,36.59
2022-08-29T01:40:52.404Z,36.53
2022-08-29T01:41:23.875Z,36.61
2022-08-29T01:41:55.355Z,36.65
2022-08-29T01:42:26.834Z,36.71
2022-08-29T01:42:58.775Z,36.44
2022-08-29T01:43:30.331Z,36.44
2022-08-29T01:44:01.836Z,36.73
2022-08-29T01:44:33.348Z,36.62
2022-08-29T01:45:05.124Z,36.46
2022-08-29T01:45:41.437Z,36.61
2022-08-29T01:46:12.997Z,36.62
2022-08-29T01:46:44.531Z,36.55
2022-08-29T01:47:16.106Z,36.44
2022-08-29T01:47:49.911Z,36.68
2022-08-29T01:48:21.395Z,36.61
2022-08-29T01:48:52.833Z,36.63
2022-08-29T01:49:24.262Z,36.70
2022-08-29T01:49:55.699Z,36.67
2022-08-29T01:50:27.230Z,36.52
2022-08-29T01:50:58.669Z,36.57
2022-08-29T01:51:30.182Z,36.58
2022-08-29T01:52:02.128Z,36.52
2022-08-29T01:52:33.779Z,36.66
2022-08-29T01:53:05.418Z,36.54
2022-08-29T01:53:37.216Z,36.39
2022-08-29T01:54:08.805Z,36.71
2022-08-29T01:54:40.302Z,36.58
2022-08-29T01:55:11.780Z,36.70
2022-08-29T01:55:43.217Z,36.54
2022-08-29T01:56:14.658Z,36.64
2022-08-29T01:56:48.567Z,36.55
2022-08-29T01:57:20.124Z,36.70
2022-08-29T01:57:51.604Z,36.51
2022-08-29T01:58:24.303Z,36.53
2022-08-29T01:58:55.787Z,36.56
2022-08-29T01:59:27.344Z,36.65
2022-08-29T01:59:58.873Z,36.57
2022-08-29T02:00:30.352Z,36.57
2022-08-29T02:01:01.876Z,36.74
2022-08-29T02:01:33.425Z,36.68
2022-08-29T02:02:05.005Z,36.64
2022-08-29T02:02:36.826Z,36.63
2022-08-29T02:03:08.757Z,36.79
2022-08-29T02:03:40.254Z,36.75
2022-08-29T02:04:11.735Z,36.68
2022-08-29T02:04:43.262Z,36.59
2022-08-29T02:05:14.796Z,36.77
2022-08-29T02:05:46.362Z,36.57
2022-08-29T02:06:17.991Z,36.59
2022-08-29T02:06:49.460Z,36.59
2022-08-29T02:07:20.916Z,36.51
2022-08-29T02:07:52.325Z,36.56
2022-08-29T02:08:23.807Z,36.63
2022-08-29T02:08:55.236Z,36.51
2022-08-29T02:09:26.688Z,36.56
2022-08-29T02:09:58.148Z,36.41
2022-08-29T02:10:29.719Z,36.63
2022-08-29T02:11:01.212Z,36.49
2022-08-29T02:11:32.693Z,36.61
2022-08-29T02:12:04.177Z,36.45
2022-08-29T02:12:35.723Z,36.39
2022-08-29T02:13:07.193Z,36.53
2022-08-29T02:13:38.735Z,36.50
2022-08-29T02:14:19.216Z,36.40
2022-08-29T02:14:50.932Z,36.48
2022-08-29T02:15:22.459Z,36.43
2022-08-29T02:15:53.934Z,36.50
2022-08-29T02:16:25.509Z,36.46
2022-08-29T02:16:57.046Z,36.53
2022-08-29T02:17:28.552Z,36.49
2022-08-29T02:18:00.005Z,36.45
2022-08-29T02:18:31.440Z,36.38
2022-08-29T02:19:02.911Z,36.21
2022-08-29T02:19:34.444Z,36.45
2022-08-29T02:20:05.965Z,36.44
2022-08-29T02:20:38.996Z,36.48
2022-08-29T02:21:10.491Z,36.51
2022-08-29T02:21:42.100Z,36.38
2022-08-29T02:22:13.582Z,36.63
2022-08-29T02:22:45.014Z,36.42
2022-08-29T02:23:30.267Z,36.35
2022-08-29T02:24:21.397Z,36.49
2022-08-29T02:24:53.957Z,36.57
2022-08-29T02:25:25.419Z,36.34
2022-08-29T02:25:56.919Z,36.32
2022-08-29T02:26:28.378Z,36.47
2022-08-29T02:26:59.926Z,36.34
2022-08-29T02:27:31.425Z,36.35
2022-08-29T02:28:02.930Z,36.51
2022-08-29T02:28:34.377Z,36.41
2022-08-29T02:29:05.918Z,36.32
2022-08-29T02:29:38.383Z,36.44
2022-08-29T02:30:10.120Z,36.48
2022-08-29T02:30:41.585Z,36.51
2022-08-29T02:31:13.137Z,36.46
2022-08-29T02:31:44.712Z,36.56
2022-08-29T02:32:16.309Z,36.45
2022-08-29T02:32:47.682Z,36.51
2022-08-29T02:33:19.216Z,36.54
2022-08-29T02:33:50.775Z,36.41
2022-08-29T02:34:22.223Z,36.50
2022-08-29T02:34:53.694Z,36.57
2022-08-29T02:35:25.544Z,36.61
2022-08-29T02:35:56.991Z,36.61
2022-08-29T02:36:29.469Z,36.45
2022-08-29T02:37:01.078Z,36.65
2022-08-29T02:37:32.549Z,36.49
2022-08-29T02:38:03.965Z,36.63
2022-08-29T02:38:35.463Z,36.62
2022-08-29T02:39:06.883Z,36.52
2022-08-29T02:39:38.439Z,36.47
2022-08-29T02:40:10.074Z,36.59
2022-08-29T02:40:41.688Z,36.60
2022-08-29T02:41:14.408Z,36.70
2022-08-29T02:41:45.959Z,36.70
2022-08-29T02:42:17.472Z,36.77
2022-08-29T02:42:48.894Z,36.65
2022-08-29T02:43:20.507Z,36.45
2022-08-29T02:43:51.943Z,36.66
2022-08-29T02:44:23.463Z,36.68
2022-08-29T02:44:54.969Z,36.47
2022-08-29T02:45:26.566Z,36.54
2022-08-29T02:45:58.056Z,36.60
2022-08-29T02:46:29.591Z,36.68
2022-08-29T02:47:01.179Z,36.55
2022-08-29T02:47:32.811Z,36.51
2022-08-29T02:48:04.297Z,36.58
2022-08-29T02:48:35.827Z,36.54
2022-08-29T02:49:07.314Z,36.73
2022-08-29T02:49:38.867Z,36.54
2022-08-29T02:50:10.926Z,36.59
2022-08-29T02:50:42.441Z,36.38
2022-08-29T02:51:13.825Z,36.46
2022-08-29T02:51:45.346Z,36.50
2022-08-29T02:52:16.805Z,36.48
2022-08-29T02:52:48.279Z,36.71
2022-08-29T02:53:19.767Z,36.59
2022-08-29T02:53:51.269Z,36.41
2022-08-29T02:54:22.728Z,36.46
2022-08-29T02:54:54.288Z,36.47
2022-08-29T02:55:26.451Z,36.32
2022-08-29T02:55:57.985Z,36.45
2022-08-29T02:56:29.384Z,36.49
2022-08-29T02:57:00.862Z,36.55
2022-08-29T02:57:32.336Z,36.43
2022-08-29T02:58:03.780Z,36.49
2022-08-29T02:58:35.243Z,36.35
2022-08-29T02:59:06.678Z,36.50
2022-08-29T02:59:38.286Z,36.45
2022-08-29T03:00:09.768Z,36.49
2022-08-29T03:00:41.326Z,36.63
2022-08-29T03:01:13.060Z,36.35
2022-08-29T03:01:44.553Z,36.38
2022-08-29T03:02:16.204Z,36.47
2022-08-29T03:02:47.762Z,36.26
2022-08-29T03:03:19.237Z,36.21
2022-08-29T03:03:50.718Z,36.20
2022-08-29T03:04:22.188Z,36.42
2022-08-29T03:04:53.645Z,36.27
2022-08-29T03:05:25.089Z,36.16
2022-08-29T03:05:56.585Z,36.37
2022-08-29T03:06:28.096Z,36.15
2022-08-29T03:06:59.510Z,36.34
2022-08-29T03:07:30.942Z,36.29
2022-08-29T03:08:02.402Z,36.20
2022-08-29T03:08:34.023Z,36.37
2022-08-29T03:09:07.263Z,36.24
2022-08-29T03:09:38.711Z,36.04
2022-08-29T03:10:10.218Z,36.06
2022-08-29T03:10:41.771Z,36.16
2022-08-29T03:11:13.284Z,36.08
2022-08-29T03:11:44.721Z,36.19
2022-08-29T03:12:16.229Z,36.15
2022-08-29T03:12:47.690Z,36.28
2022-08-29T03:13:19.151Z,36.25
2022-08-29T03:13:50.631Z,36.07
2022-08-29T03:14:22.881Z,36.20
2022-08-29T03:14:54.326Z,36.30
2022-08-29T03:15:25.785Z,36.15
2022-08-29T03:15:57.223Z,36.19
2022-08-29T03:16:28.653Z,36.39
2022-08-29T03:17:00.199Z,36.34
2022-08-29T03:17:31.619Z,36.37
2022-08-29T03:18:03.067Z,36.25
2022-08-29T03:18:34.461Z,36.26
2022-08-29T03:19:05.931Z,36.28
2022-08-29T03:19:37.630Z,36.37
2022-08-29T03:20:09.061Z,36.20
2022-08-29T03:20:40.625Z,36.21
2022-08-29T03:21:12.111Z,36.42
2022-08-29T03:21:43.621Z,36.22
2022-08-29T03:22:15.154Z,36.21
2022-08-29T03:22:46.624Z,35.97
2022-08-29T03:23:18.078Z,36.17
2022-08-29T03:23:49.564Z,36.28
2022-08-29T03:24:25.715Z,36.22
2022-08-29T03:24:58.626Z,36.15
2022-08-29T03:25:30.087Z,36.19
2022-08-29T03:26:01.596Z,36.20
2022-08-29T03:26:33.142Z,36.09
2022-08-29T03:27:04.592Z,36.14
2022-08-29T03:27:36.125Z,36.17
2022-08-29T03:28:07.639Z,36.29
2022-08-29T03:28:39.181Z,36.29
2022-08-29T03:29:10.660Z,36.21
2022-08-29T03:29:42.165Z,36.36
2022-08-29T03:30:13.605Z,36.17
2022-08-29T03:30:45.130Z,36.30
2022-08-29T03:31:16.640Z,36.35
2022-08-29T03:31:48.208Z,36.34
2022-08-29T03:32:19.628Z,36.35
2022-08-29T03:32:51.124Z,36.07
2022-08-29T03:33:22.682Z,36.29
2022-08-29T03:33:54.189Z,36.23
2022-08-29T03:34:25.742Z,36.28
2022-08-29T03:34:57.161Z,36.33
2022-08-29T03:35:28.580Z,36.26
2022-08-29T03:36:00.101Z,36.33
2022-08-29T03:36:31.548Z,36.20
2022-08-29T03:37:02.993Z,36.24
2022-08-29T03:37:34.427Z,36.01
2022-08-29T03:38:05.868Z,36.24
2022-08-29T03:38:37.308Z,36.01
2022-08-29T03:39:08.746Z,36.24
2022-08-29T03:39:40.305Z,36.22
2022-08-29T03:40:11.857Z,35.96
2022-08-29T03:40:43.465Z,36.23
2022-08-29T03:41:15.096Z,36.27
2022-08-29T03:41:46.500Z,36.20
2022-08-29T03:42:17.934Z,36.16
2022-08-29T03:42:49.374Z,36.21
2022-08-29T03:43:20.845Z,36.19
2022-08-29T03:43:52.286Z,36.17
2022-08-29T03:44:23.797Z,36.26
2022-08-29T03:44:55.292Z,36.00
2022-08-29T03:45:26.718Z,35.96
2022-08-29T03:45:58.181Z,36.17
2022-08-29T03:46:29.790Z,36.28
2022-08-29T03:47:01.416Z,36.06
2022-08-29T03:47:32.924Z,36.00
2022-08-29T03:48:04.405Z,35.97
2022-08-29T03:48:35.984Z,36.03
2022-08-29T03:49:07.430Z,36.08
2022-08-29T03:49:38.837Z,36.04
2022-08-29T03:50:10.336Z,36.14
2022-08-29T03:50:41.833Z,36.03
2022-08-29T03:51:13.367Z,36.06
2022-08-29T03:51:44.839Z,35.86
2022-08-29T03:52:16.314Z,35.96
2022-08-29T03:52:47.843Z,36.05
2022-08-29T03:53:19.357Z,36.03
2022-08-29T03:53:51.605Z,36.01
2022-08-29T03:54:23.123Z,36.04
2022-08-29T03:54:54.611Z,36.08
2022-08-29T03:55:26.202Z,36.14
2022-08-29T03:55:57.775Z,35.87
2022-08-29T03:56:29.280Z,36.00
2022-08-29T03:57:00.809Z,35.95
2022-08-29T03:57:32.251Z,36.07
2022-08-29T03:58:03.776Z,35.97
2022-08-29T03:58:35.255Z,36.01
2022-08-29T03:59:06.694Z,36.06
2022-08-29T03:59:38.245Z,35.93
2022-08-29T04:00:09.771Z,35.88
2022-08-29T04:00:41.297Z,36.00
2022-08-29T04:01:12.785Z,35.83
2022-08-29T04:01:44.290Z,35.90
2022-08-29T04:02:15.832Z,35.97
2022-08-29T04:02:47.368Z,35.89
2022-08-29T04:03:18.932Z,35.94
2022-08-29T04:03:50.476Z,36.04
2022-08-29T04:04:21.939Z,35.89
2022-08-29T04:04:53.396Z,35.81
2022-08-29T04:05:24.900Z,36.09
2022-08-29T04:05:56.369Z,36.07
2022-08-29T04:06:28.019Z,35.79
2022-08-29T04:06:59.441Z,35.95
2022-08-29T04:07:31.079Z,35.99
2022-08-29T04:08:02.633Z,36.00
2022-08-29T04:08:34.301Z,35.90
2022-08-29T04:09:05.798Z,35.81
2022-08-29T04:09:37.256Z,35.66
2022-08-29T04:10:08.740Z,35.83
2022-08-29T04:10:40.208Z,35.89
2022-08-29T04:11:11.625Z,35.85
2022-08-29T04:11:43.111Z,35.93
2022-08-29T04:12:14.634Z,35.73
2022-08-29T04:12:47.604Z,35.81
2022-08-29T04:13:20.652Z,35.83
2022-08-29T04:13:52.117Z,35.68
2022-08-29T04:14:23.627Z,35.84
2022-08-29T04:14:55.090Z,35.99
2022-08-29T04:15:26.560Z,36.07
2022-08-29T04:15:58.107Z,35.96
2022-08-29T04:16:30.360Z,36.02
2022-08-29T04:17:02.659Z,35.88
2022-08-29T04:17:34.140Z,35.90
2022-08-29T04:18:06.915Z,35.75
2022-08-29T04:18:47.161Z,35.92
2022-08-29T04:19:18.628Z,35.67
2022-08-29T04:19:50.095Z,35.85
2022-08-29T04:20:24.730Z,35.80
2022-08-29T04:20:57.107Z,35.76
2022-08-29T04:21:28.713Z,35.81
2022-08-29T04:22:00.133Z,35.84
2022-08-29T04:22:31.637Z,35.68
2022-08-29T04:23:03.096Z,35.82
2022-08-29T04:23:34.585Z,35.58
2022-08-29T04:24:06.074Z,35.82
2022-08-29T04:24:37.553Z,35.99
2022-08-29T04:25:09.122Z,35.83
2022-08-29T04:25:40.602Z,35.81
2022-08-29T04:26:34.898Z,35.68
2022-08-29T04:27:03.621Z,35.84
2022-08-29T04:27:35.129Z,35.60
2022-08-29T04:28:06.585Z,35.78
2022-08-29T04:28:38.165Z,35.76
2022-08-29T04:29:09.609Z,35.82
2022-08-29T04:29:41.138Z,35.65
2022-08-29T04:30:12.571Z,35.82
2022-08-29T04:30:46.450Z,36.04
2022-08-29T04:31:23.215Z,35.88
2022-08-29T04:31:54.700Z,35.79
2022-08-29T04:32:26.161Z,35.68
2022-08-29T04:32:57.601Z,35.78
2022-08-29T04:33:29.082Z,35.79
2022-08-29T04:34:00.648Z,35.84
2022-08-29T04:34:32.092Z,35.81
2022-08-29T04:35:04.289Z,35.99
2022-08-29T04:35:35.719Z,35.94
2022-08-29T04:36:07.455Z,35.92
2022-08-29T04:36:40.080Z,35.94
2022-08-29T04:37:11.545Z,35.91
2022-08-29T04:37:42.993Z,36.05
2022-08-29T04:38:14.573Z,35.99
2022-08-29T04:38:46.322Z,35.82
2022-08-29T04:39:17.790Z,35.87
2022-08-29T04:39:49.269Z,35.95
2022-08-29T04:40:20.818Z,36.03
2022-08-29T04:40:52.274Z,35.88
2022-08-29T04:41:23.779Z,35.96
2022-08-29T04:41:55.227Z,35.93
2022-08-29T04:42:26.698Z,35.89
2022-08-29T04:42:58.144Z,35.96
2022-08-29T04:43:29.572Z,36.00
2022-08-29T04:44:01.091Z,35.94
2022-08-29T04:44:32.549Z,36.04
2022-08-29T04:45:04.034Z,36.08
2022-08-29T04:45:35.479Z,35.96
2022-08-29T04:46:06.985Z,36.01
2022-08-29T04:46:47.767Z,35.93
2022-08-29T04:47:19.308Z,36.07
2022-08-29T04:47:50.727Z,36.04
2022-08-29T04:48:22.304Z,35.75
2022-08-29T04:48:53.801Z,35.97
2022-08-29T04:49:25.318Z,36.01
2022-08-29T04:49:56.775Z,36.03
2022-08-29T04:50:28.246Z,35.96
2022-08-29T04:50:59.758Z,35.99
2022-08-29T04:51:31.184Z,35.80
2022-08-29T04:52:02.729Z,35.77
2022-08-29T04:52:34.178Z,35.76
2022-08-29T04:53:05.790Z,35.77
2022-08-29T04:53:37.269Z,35.66
2022-08-29T04:54:08.681Z,35.68
2022-08-29T04:54:40.163Z,35.62
2022-08-29T04:55:11.583Z,35.53
2022-08-29T04:55:43.023Z,35.56
2022-08-29T04:56:16.364Z,35.84
2022-08-29T04:56:47.859Z,35.74
2022-08-29T04:57:19.758Z,35.66
2022-08-29T04:57:51.428Z,35.82
2022-08-29T04:58:22.935Z,35.64
2022-08-29T04:58:56.394Z,35.73
2022-08-29T04:59:27.832Z,35.82
2022-08-29T04:59:59.895Z,35.87
2022-08-29T05:00:31.967Z,35.73
2022-08-29T05:01:03.416Z,35.92
2022-08-29T05:01:34.973Z,35.79
2022-08-29T05:02:06.545Z,35.99
2022-08-29T05:02:38.174Z,36.03
2022-08-29T05:03:09.775Z,35.80
2022-08-29T05:03:41.392Z,35.67
2022-08-29T05:04:14.602Z,35.91
2022-08-29T05:04:46.411Z,35.85
2022-08-29T05:05:17.882Z,35.75
2022-08-29T05:05:49.358Z,35.96
2022-08-29T05:06:22.443Z,35.98
2022-08-29T05:06:54.189Z,35.86
2022-08-29T05:07:25.701Z,35.98
2022-08-29T05:07:57.208Z,36.02
2022-08-29T05:08:28.713Z,35.97
2022-08-29T05:09:01.886Z,35.92
2022-08-29T05:09:33.387Z,36.00
2022-08-29T05:10:04.869Z,36.00
2022-08-29T05:10:36.372Z,35.86
2022-08-29T05:11:10.395Z,36.04
2022-08-29T05:11:41.875Z,35.97
2022-08-29T05:12:13.376Z,35.93
2022-08-29T05:12:44.836Z,36.13
2022-08-29T05:13:16.382Z,36.05
2022-08-29T05:13:47.832Z,35.90
2022-08-29T05:14:19.395Z,36.12
2022-08-29T05:14:50.876Z,36.10
2022-08-29T05:15:23.339Z,36.00
2022-08-29T05:15:54.836Z,36.13
2022-08-29T05:16:26.363Z,36.22
2022-08-29T05:16:57.911Z,36.08
2022-08-29T05:17:29.337Z,36.07
2022-08-29T05:18:00.788Z,36.17
2022-08-29T05:18:32.219Z,35.98
2022-08-29T05:19:03.667Z,36.07
2022-08-29T05:19:35.496Z,36.08
2022-08-29T05:20:07.013Z,36.04
2022-08-29T05:20:38.522Z,36.02
2022-08-29T05:21:09.977Z,35.99
2022-08-29T05:21:41.472Z,36.25
2022-08-29T05:22:12.885Z,36.14
2022-08-29T05:22:44.328Z,36.05
2022-08-29T05:23:15.837Z,36.05
2022-08-29T05:23:47.312Z,36.34
2022-08-29T05:24:18.806Z,36.08
2022-08-29T05:24:50.252Z,36.02
2022-08-29T05:25:21.751Z,36.24
2022-08-29T05:25:53.200Z,36.17
2022-08-29T05:26:24.714Z,36.20
2022-08-29T05:26:56.248Z,36.22
2022-08-29T05:27:27.685Z,36.23
2022-08-29T05:27:59.170Z,36.14
2022-08-29T05:28:30.680Z,36.22
2022-08-29T05:29:02.161Z,36.34
2022-08-29T05:29:33.659Z,36.28
2022-08-29T05:30:05.087Z,36.19
2022-08-29T05:30:36.851Z,36.14
2022-08-29T05:31:13.149Z,36.18
2022-08-29T05:31:45.599Z,36.13
2022-08-29T05:32:17.287Z,36.15
2022-08-29T05:32:48.778Z,36.18
2022-08-29T05:33:20.259Z,36.21
2022-08-29T05:33:51.817Z,36.16
2022-08-29T05:34:34.618Z,36.06
2022-08-29T05:35:06.797Z,36.26
2022-08-29T05:35:38.243Z,36.11
2022-08-29T05:36:09.731Z,36.18
2022-08-29T05:36:41.197Z,36.09
2022-08-29T05:37:12.704Z,36.16
2022-08-29T05:37:44.224Z,36.08
2022-08-29T05:38:15.924Z,36.00
2022-08-29T05:38:47.540Z,36.05
2022-08-29T05:39:19.054Z,36.01
2022-08-29T05:39:50.496Z,36.14
2022-08-29T05:40:22.161Z,36.30
2022-08-29T05:40:53.653Z,36.19
2022-08-29T05:41:25.184Z,36.00
2022-08-29T05:41:56.595Z,36.12
2022-08-29T05:42:28.079Z,36.15
2022-08-29T05:42:59.512Z,36.21
2022-08-29T05:43:30.996Z,36.02
2022-08-29T05:44:02.424Z,36.05
2022-08-29T05:44:35.434Z,36.22
2022-08-29T05:45:07.199Z,36.08
2022-08-29T05:45:38.646Z,36.10
2022-08-29T05:46:10.286Z,36.15
2022-08-29T05:46:41.890Z,36.28
2022-08-29T05:47:13.468Z,36.13
2022-08-29T05:47:44.944Z,36.18
2022-08-29T05:48:16.610Z,36.01
2022-08-29T05:48:48.076Z,36.29
2022-08-29T05:49:19.580Z,36.12
2022-08-29T05:49:51.078Z,36.08
2022-08-29T05:50:22.644Z,36.21
2022-08-29T05:50:54.089Z,36.20
2022-08-29T05:51:25.603Z,36.22
2022-08-29T05:51:57.121Z,36.34
2022-08-29T05:52:28.663Z,36.15
2022-08-29T05:53:00.150Z,36.25
2022-08-29T05:53:31.665Z,36.22
2022-08-29T05:54:03.159Z,36.21
2022-08-29T05:54:34.663Z,36.44
2022-08-29T05:55:06.094Z,36.32
2022-08-29T05:55:37.782Z,36.41
2022-08-29T05:56:09.257Z,36.44
2022-08-29T05:56:40.722Z,36.50
2022-08-29T05:57:16.698Z,36.33
2022-08-29T05:57:50.403Z,36.46
2022-08-29T05:58:21.918Z,36.49
2022-08-29T05:58:53.379Z,36.52
2022-08-29T05:59:24.876Z,36.46
2022-08-29T05:59:56.473Z,36.40
2022-08-29T06:00:28.126Z,36.54
2022-08-29T06:00:59.652Z,36.72
2022-08-29T06:01:34.028Z,36.55
2022-08-29T06:02:05.534Z,36.71
2022-08-29T06:02:37.190Z,36.49
2022-08-29T06:03:08.824Z,36.65
2022-08-29T06:03:45.380Z,36.42
2022-08-29T06:04:17.492Z,36.57
2022-08-29T06:04:48.927Z,36.56
2022-08-29T06:05:20.441Z,36.58
2022-08-29T06:05:51.949Z,36.50
2022-08-29T06:06:23.477Z,36.63
2022-08-29T06:06:55.532Z,36.70
2022-08-29T06:07:26.986Z,36.56
2022-08-29T06:07:58.534Z,36.60
2022-08-29T06:08:29.980Z,36.50
2022-08-29T06:09:01.474Z,36.64
2022-08-29T06:09:32.943Z,36.62
2022-08-29T06:10:04.438Z,36.78
2022-08-29T06:10:36.026Z,36.60
2022-08-29T06:11:07.537Z,36.79
2022-08-29T06:11:38.979Z,36.71
2022-08-29T06:12:10.561Z,36.98
2022-08-29T06:12:42.058Z,36.79
2022-08-29T06:13:13.564Z,36.79
2022-08-29T06:13:44.979Z,36.76
2022-08-29T06:14:16.405Z,36.95
2022-08-29T06:14:50.284Z,36.92
2022-08-29T06:15:22.395Z,36.70
2022-08-29T06:15:53.952Z,36.86
2022-08-29T06:16:25.428Z,36.80
2022-08-29T06:16:56.959Z,36.84
2022-08-29T06:17:28.465Z,36.82
2022-08-29T06:17:59.991Z,36.82
2022-08-29T06:18:36.127Z,36.87
2022-08-29T06:19:10.975Z,36.81
2022-08-29T06:19:42.394Z,36.73
2022-08-29T06:20:13.910Z,36.82
2022-08-29T06:20:45.341Z,36.95
2022-08-29T06:21:16.869Z,36.75
2022-08-29T06:21:48.377Z,36.83
2022-08-29T06:22:19.830Z,36.85
2022-08-29T06:22:51.406Z,36.90
2022-08-29T06:23:27.346Z,36.98
2022-08-29T06:23:59.765Z,36.88
2022-08-29T06:24:31.221Z,36.95
2022-08-29T06:25:16.535Z,36.88
2022-08-29T06:25:54.137Z,36.98
2022-08-29T06:26:25.602Z,37.12
2022-08-29T06:26:57.079Z,37.15
2022-08-29T06:27:28.555Z,37.06
2022-08-29T06:28:00.094Z,37.01
2022-08-29T06:28:31.593Z,37.03
2022-08-29T06:29:03.076Z,36.99
2022-08-29T06:29:43.186Z,37.23
2022-08-29T06:30:15.395Z,37.02
2022-08-29T06:30:46.881Z,36.96
2022-08-29T06:31:18.453Z,37.26
2022-08-29T06:31:49.990Z,37.24
2022-08-29T06:32:21.409Z,36.99
2022-08-29T06:32:52.881Z,37.16
2022-08-29T06:33:24.475Z,37.25
2022-08-29T06:33:56.047Z,37.10
2022-08-29T06:34:27.548Z,37.29
2022-08-29T06:34:59.051Z,37.20
2022-08-29T06:35:30.465Z,37.00
2022-08-29T06:36:01.939Z,37.15
2022-08-29T06:36:33.451Z,37.27
2022-08-29T06:37:08.541Z,37.35
2022-08-29T06:37:39.992Z,37.37
2022-08-29T06:38:14.035Z,37.23
2022-08-29T06:38:45.762Z,37.21
2022-08-29T06:39:17.202Z,37.34
2022-08-29T06:39:48.657Z,37.30
2022-08-29T06:40:20.218Z,37.34
2022-08-29T06:40:51.734Z,37.37
2022-08-29T06:41:23.188Z,37.25
2022-08-29T06:41:54.677Z,37.36
2022-08-29T06:42:28.672Z,37.21
2022-08-29T06:43:00.303Z,37.25
2022-08-29T06:43:31.804Z,37.27
2022-08-29T06:44:03.353Z,37.26
2022-08-29T06:44:34.774Z,37.29
2022-08-29T06:45:06.318Z,37.45
2022-08-29T06:45:38.029Z,37.36
2022-08-29T06:46:09.531Z,37.32
2022-08-29T06:46:41.093Z,37.46
2022-08-29T06:47:12.564Z,37.40
2022-08-29T06:47:44.032Z,37.51
2022-08-29T06:48:15.777Z,37.51
2022-08-29T06:48:47.423Z,37.52
2022-08-29T06:49:18.916Z,37.59
2022-08-29T06:49:51.425Z,37.48
2022-08-29T06:50:22.855Z,37.64
2022-08-29T06:50:54.344Z,37.69
2022-08-29T06:51:25.831Z,37.53
2022-08-29T06:51:58.610Z,37.61